sensor_id;sensor_type;location;lat;lon;timestamp;P1;durP1;ratioP1;P2;durP2;ratioP2
80227;SDS011;69539;42.138;24.742;2023-05-10T00:00:13;2.90;;;2.60;;
80227;SDS011;69539;42.138;24.742;2023-05-10T00:02:39;3.45;;;2.83;;
80227;SDS011;69539;42.138;24.742;2023-05-10T00:05:05;3.53;;;2.95;;
80227;SDS011;69539;42.138;24.742;2023-05-10T00:07:31;3.63;;;2.80;;
80227;SDS011;69539;42.138;24.742;2023-05-10T00:09:57;3.20;;;2.90;;
80227;SDS011;69539;42.138;24.742;2023-05-10T00:12:23;3.35;;;2.92;;
80227;SDS011;69539;42.138;24.742;2023-05-10T00:14:48;3.13;;;2.80;;
80227;SDS011;69539;42.138;24.742;2023-05-10T00:17:14;3.30;;;3.00;;
80227;SDS011;69539;42.138;24.742;2023-05-10T00:19:40;3.30;;;2.83;;
80227;SDS011;69539;42.138;24.742;2023-05-10T00:22:05;3.17;;;2.72;;
80227;SDS011;69539;42.138;24.742;2023-05-10T00:24:31;3.10;;;2.83;;
80227;SDS011;69539;42.138;24.742;2023-05-10T00:26:56;3.50;;;2.88;;
80227;SDS011;69539;42.138;24.742;2023-05-10T00:29:22;3.25;;;2.83;;
80227;SDS011;69539;42.138;24.742;2023-05-10T00:31:48;3.28;;;2.97;;
80227;SDS011;69539;42.138;24.742;2023-05-10T00:34:13;4.13;;;2.95;;
80227;SDS011;69539;42.138;24.742;2023-05-10T00:36:39;3.45;;;2.70;;
80227;SDS011;69539;42.138;24.742;2023-05-10T00:39:05;2.90;;;2.60;;
80227;SDS011;69539;42.138;24.742;2023-05-10T00:41:31;3.33;;;2.80;;
80227;SDS011;69539;42.138;24.742;2023-05-10T00:43:59;3.20;;;2.90;;
80227;SDS011;69539;42.138;24.742;2023-05-10T00:46:26;3.22;;;2.92;;
80227;SDS011;69539;42.138;24.742;2023-05-10T00:48:53;3.20;;;2.90;;
80227;SDS011;69539;42.138;24.742;2023-05-10T00:51:19;3.13;;;2.80;;
80227;SDS011;69539;42.138;24.742;2023-05-10T00:53:45;3.45;;;3.00;;
80227;SDS011;69539;42.138;24.742;2023-05-10T00:56:11;3.13;;;2.88;;
80227;SDS011;69539;42.138;24.742;2023-05-10T00:58:38;3.08;;;2.78;;
80227;SDS011;69539;42.138;24.742;2023-05-10T01:01:04;3.10;;;2.80;;
80227;SDS011;69539;42.138;24.742;2023-05-10T01:03:31;2.92;;;2.70;;
80227;SDS011;69539;42.138;24.742;2023-05-10T01:05:57;3.72;;;2.78;;
80227;SDS011;69539;42.138;24.742;2023-05-10T01:08:23;3.33;;;2.90;;
80227;SDS011;69539;42.138;24.742;2023-05-10T01:10:50;3.03;;;2.73;;
80227;SDS011;69539;42.138;24.742;2023-05-10T01:13:18;3.08;;;2.80;;
80227;SDS011;69539;42.138;24.742;2023-05-10T01:16:02;4.28;;;3.00;;
80227;SDS011;69539;42.138;24.742;2023-05-10T01:18:29;3.15;;;2.65;;
80227;SDS011;69539;42.138;24.742;2023-05-10T01:21:13;3.15;;;2.85;;
80227;SDS011;69539;42.138;24.742;2023-05-10T01:24:07;3.10;;;2.80;;
80227;SDS011;69539;42.138;24.742;2023-05-10T01:27:12;3.30;;;3.00;;
80227;SDS011;69539;42.138;24.742;2023-05-10T01:32:36;3.85;;;2.90;;
80227;SDS011;69539;42.138;24.742;2023-05-10T01:35:26;2.75;;;2.50;;
80227;SDS011;69539;42.138;24.742;2023-05-10T01:40:24;3.97;;;2.97;;
80227;SDS011;69539;42.138;24.742;2023-05-10T01:43:03;2.63;;;2.42;;
80227;SDS011;69539;42.138;24.742;2023-05-10T01:45:41;2.90;;;2.70;;
80227;SDS011;69539;42.138;24.742;2023-05-10T01:48:15;3.17;;;2.83;;
80227;SDS011;69539;42.138;24.742;2023-05-10T01:50:44;3.45;;;2.70;;
80227;SDS011;69539;42.138;24.742;2023-05-10T01:53:11;4.28;;;2.85;;
80227;SDS011;69539;42.138;24.742;2023-05-10T01:55:41;3.72;;;2.72;;
80227;SDS011;69539;42.138;24.742;2023-05-10T01:58:25;3.28;;;2.97;;
80227;SDS011;69539;42.138;24.742;2023-05-10T02:00:54;3.55;;;2.72;;
80227;SDS011;69539;42.138;24.742;2023-05-10T02:03:23;3.15;;;2.50;;
80227;SDS011;69539;42.138;24.742;2023-05-10T02:05:51;3.15;;;2.90;;
80227;SDS011;69539;42.138;24.742;2023-05-10T02:08:18;3.13;;;2.75;;
80227;SDS011;69539;42.138;24.742;2023-05-10T02:10:45;3.92;;;2.88;;
80227;SDS011;69539;42.138;24.742;2023-05-10T02:13:13;2.97;;;2.67;;
80227;SDS011;69539;42.138;24.742;2023-05-10T02:15:41;3.00;;;2.70;;
80227;SDS011;69539;42.138;24.742;2023-05-10T02:18:07;3.15;;;2.90;;
80227;SDS011;69539;42.138;24.742;2023-05-10T02:20:35;3.28;;;2.90;;
80227;SDS011;69539;42.138;24.742;2023-05-10T02:23:02;3.00;;;2.72;;
80227;SDS011;69539;42.138;24.742;2023-05-10T02:25:28;2.60;;;2.40;;
80227;SDS011;69539;42.138;24.742;2023-05-10T02:27:55;2.72;;;2.53;;
80227;SDS011;69539;42.138;24.742;2023-05-10T02:30:22;3.07;;;2.47;;
80227;SDS011;69539;42.138;24.742;2023-05-10T02:32:49;2.58;;;2.38;;
80227;SDS011;69539;42.138;24.742;2023-05-10T02:35:16;2.80;;;2.60;;
80227;SDS011;69539;42.138;24.742;2023-05-10T02:37:42;3.33;;;2.78;;
80227;SDS011;69539;42.138;24.742;2023-05-10T02:40:10;2.60;;;2.40;;
80227;SDS011;69539;42.138;24.742;2023-05-10T02:42:37;2.97;;;2.53;;
80227;SDS011;69539;42.138;24.742;2023-05-10T02:45:07;3.15;;;2.85;;
80227;SDS011;69539;42.138;24.742;2023-05-10T02:47:36;2.55;;;2.35;;
80227;SDS011;69539;42.138;24.742;2023-05-10T02:50:02;3.22;;;2.92;;
80227;SDS011;69539;42.138;24.742;2023-05-10T02:52:36;3.10;;;2.80;;
80227;SDS011;69539;42.138;24.742;2023-05-10T02:55:16;2.92;;;2.63;;
80227;SDS011;69539;42.138;24.742;2023-05-10T02:57:47;2.70;;;2.50;;
80227;SDS011;69539;42.138;24.742;2023-05-10T03:00:16;3.00;;;2.70;;
80227;SDS011;69539;42.138;24.742;2023-05-10T03:02:42;2.83;;;2.35;;
80227;SDS011;69539;42.138;24.742;2023-05-10T03:05:08;3.25;;;2.65;;
80227;SDS011;69539;42.138;24.742;2023-05-10T03:07:34;3.38;;;2.65;;
80227;SDS011;69539;42.138;24.742;2023-05-10T03:10:00;2.60;;;2.40;;
80227;SDS011;69539;42.138;24.742;2023-05-10T03:15:17;2.85;;;2.63;;
80227;SDS011;69539;42.138;24.742;2023-05-10T03:17:56;3.17;;;2.80;;
80227;SDS011;69539;42.138;24.742;2023-05-10T03:20:32;3.08;;;2.60;;
80227;SDS011;69539;42.138;24.742;2023-05-10T03:23:00;2.80;;;2.50;;
80227;SDS011;69539;42.138;24.742;2023-05-10T03:25:30;2.88;;;2.53;;
80227;SDS011;69539;42.138;24.742;2023-05-10T03:27:57;3.13;;;2.83;;
80227;SDS011;69539;42.138;24.742;2023-05-10T03:30:25;2.90;;;2.70;;
80227;SDS011;69539;42.138;24.742;2023-05-10T03:32:50;2.90;;;2.60;;
80227;SDS011;69539;42.138;24.742;2023-05-10T03:35:16;2.63;;;2.42;;
80227;SDS011;69539;42.138;24.742;2023-05-10T03:37:42;2.95;;;2.67;;
80227;SDS011;69539;42.138;24.742;2023-05-10T03:40:08;2.97;;;2.67;;
80227;SDS011;69539;42.138;24.742;2023-05-10T03:42:33;2.85;;;2.65;;
80227;SDS011;69539;42.138;24.742;2023-05-10T03:44:59;2.95;;;2.65;;
80227;SDS011;69539;42.138;24.742;2023-05-10T03:47:25;3.00;;;2.67;;
80227;SDS011;69539;42.138;24.742;2023-05-10T03:49:50;4.18;;;3.40;;
80227;SDS011;69539;42.138;24.742;2023-05-10T03:52:16;5.40;;;3.30;;
80227;SDS011;69539;42.138;24.742;2023-05-10T03:54:43;8.82;;;3.53;;
80227;SDS011;69539;42.138;24.742;2023-05-10T03:57:08;5.85;;;3.88;;
80227;SDS011;69539;42.138;24.742;2023-05-10T03:59:34;5.03;;;3.75;;
80227;SDS011;69539;42.138;24.742;2023-05-10T04:02:00;5.03;;;3.88;;
80227;SDS011;69539;42.138;24.742;2023-05-10T04:04:26;5.93;;;3.78;;
80227;SDS011;69539;42.138;24.742;2023-05-10T04:06:51;5.93;;;3.88;;
80227;SDS011;69539;42.138;24.742;2023-05-10T04:09:17;7.03;;;3.80;;
80227;SDS011;69539;42.138;24.742;2023-05-10T04:11:43;7.82;;;4.00;;
80227;SDS011;69539;42.138;24.742;2023-05-10T04:14:08;8.13;;;4.18;;
80227;SDS011;69539;42.138;24.742;2023-05-10T04:16:34;8.23;;;4.25;;
80227;SDS011;69539;42.138;24.742;2023-05-10T04:19:00;6.07;;;4.03;;
80227;SDS011;69539;42.138;24.742;2023-05-10T04:21:25;6.80;;;3.78;;
80227;SDS011;69539;42.138;24.742;2023-05-10T04:23:51;8.15;;;3.95;;
80227;SDS011;69539;42.138;24.742;2023-05-10T04:26:16;9.35;;;4.35;;
80227;SDS011;69539;42.138;24.742;2023-05-10T04:28:42;8.05;;;4.40;;
80227;SDS011;69539;42.138;24.742;2023-05-10T04:31:09;9.40;;;4.50;;
80227;SDS011;69539;42.138;24.742;2023-05-10T04:33:35;10.10;;;4.45;;
80227;SDS011;69539;42.138;24.742;2023-05-10T04:36:01;6.63;;;4.03;;
80227;SDS011;69539;42.138;24.742;2023-05-10T04:38:28;8.07;;;4.50;;
80227;SDS011;69539;42.138;24.742;2023-05-10T04:40:54;8.13;;;4.00;;
80227;SDS011;69539;42.138;24.742;2023-05-10T04:43:19;8.68;;;4.40;;
80227;SDS011;69539;42.138;24.742;2023-05-10T04:45:45;10.25;;;4.10;;
80227;SDS011;69539;42.138;24.742;2023-05-10T04:48:11;8.73;;;4.22;;
80227;SDS011;69539;42.138;24.742;2023-05-10T04:50:37;14.32;;;4.90;;
80227;SDS011;69539;42.138;24.742;2023-05-10T04:53:03;8.18;;;4.20;;
80227;SDS011;69539;42.138;24.742;2023-05-10T04:55:29;7.40;;;4.40;;
80227;SDS011;69539;42.138;24.742;2023-05-10T04:57:55;8.18;;;4.25;;
80227;SDS011;69539;42.138;24.742;2023-05-10T05:00:22;10.32;;;4.20;;
80227;SDS011;69539;42.138;24.742;2023-05-10T05:02:48;9.32;;;4.45;;
80227;SDS011;69539;42.138;24.742;2023-05-10T05:05:14;6.97;;;4.00;;
80227;SDS011;69539;42.138;24.742;2023-05-10T05:07:39;8.70;;;4.40;;
80227;SDS011;69539;42.138;24.742;2023-05-10T05:10:06;7.78;;;4.43;;
80227;SDS011;69539;42.138;24.742;2023-05-10T05:12:32;9.52;;;4.20;;
80227;SDS011;69539;42.138;24.742;2023-05-10T05:14:58;12.68;;;4.38;;
80227;SDS011;69539;42.138;24.742;2023-05-10T05:17:24;9.77;;;4.43;;
80227;SDS011;69539;42.138;24.742;2023-05-10T05:19:49;8.10;;;4.22;;
80227;SDS011;69539;42.138;24.742;2023-05-10T05:22:15;9.15;;;4.50;;
80227;SDS011;69539;42.138;24.742;2023-05-10T05:24:41;7.80;;;4.20;;
80227;SDS011;69539;42.138;24.742;2023-05-10T05:27:06;12.02;;;4.70;;
80227;SDS011;69539;42.138;24.742;2023-05-10T05:29:32;8.45;;;4.05;;
80227;SDS011;69539;42.138;24.742;2023-05-10T05:31:58;7.18;;;4.00;;
80227;SDS011;69539;42.138;24.742;2023-05-10T05:34:24;10.05;;;3.90;;
80227;SDS011;69539;42.138;24.742;2023-05-10T05:36:50;8.73;;;4.35;;
80227;SDS011;69539;42.138;24.742;2023-05-10T05:39:16;7.88;;;3.88;;
80227;SDS011;69539;42.138;24.742;2023-05-10T05:41:41;7.40;;;4.05;;
80227;SDS011;69539;42.138;24.742;2023-05-10T05:44:07;8.40;;;4.03;;
80227;SDS011;69539;42.138;24.742;2023-05-10T05:46:33;5.57;;;3.80;;
80227;SDS011;69539;42.138;24.742;2023-05-10T05:48:58;7.25;;;4.22;;
80227;SDS011;69539;42.138;24.742;2023-05-10T05:51:24;8.80;;;4.20;;
80227;SDS011;69539;42.138;24.742;2023-05-10T05:53:50;8.43;;;3.88;;
80227;SDS011;69539;42.138;24.742;2023-05-10T05:56:15;9.45;;;4.13;;
80227;SDS011;69539;42.138;24.742;2023-05-10T05:58:42;6.93;;;4.15;;
80227;SDS011;69539;42.138;24.742;2023-05-10T06:01:08;7.28;;;3.83;;
80227;SDS011;69539;42.138;24.742;2023-05-10T06:03:34;11.15;;;4.03;;
80227;SDS011;69539;42.138;24.742;2023-05-10T06:05:59;8.52;;;4.03;;
80227;SDS011;69539;42.138;24.742;2023-05-10T06:08:25;8.70;;;4.20;;
80227;SDS011;69539;42.138;24.742;2023-05-10T06:10:51;4.95;;;3.72;;
80227;SDS011;69539;42.138;24.742;2023-05-10T06:13:16;9.35;;;3.88;;
80227;SDS011;69539;42.138;24.742;2023-05-10T06:15:42;8.80;;;3.95;;
80227;SDS011;69539;42.138;24.742;2023-05-10T06:18:08;8.13;;;4.20;;
80227;SDS011;69539;42.138;24.742;2023-05-10T06:20:33;7.28;;;3.90;;
80227;SDS011;69539;42.138;24.742;2023-05-10T06:22:59;6.70;;;3.45;;
80227;SDS011;69539;42.138;24.742;2023-05-10T06:25:24;10.40;;;3.60;;
80227;SDS011;69539;42.138;24.742;2023-05-10T06:27:50;7.50;;;4.00;;
80227;SDS011;69539;42.138;24.742;2023-05-10T06:30:20;6.18;;;3.60;;
80227;SDS011;69539;42.138;24.742;2023-05-10T06:32:48;7.32;;;3.83;;
80227;SDS011;69539;42.138;24.742;2023-05-10T06:35:13;7.18;;;3.90;;
80227;SDS011;69539;42.138;24.742;2023-05-10T06:37:39;5.75;;;3.67;;
80227;SDS011;69539;42.138;24.742;2023-05-10T06:40:05;5.80;;;3.40;;
80227;SDS011;69539;42.138;24.742;2023-05-10T06:42:31;6.20;;;3.60;;
80227;SDS011;69539;42.138;24.742;2023-05-10T06:44:57;5.53;;;3.58;;
80227;SDS011;69539;42.138;24.742;2023-05-10T06:47:23;8.68;;;4.05;;
80227;SDS011;69539;42.138;24.742;2023-05-10T06:49:48;4.97;;;3.30;;
80227;SDS011;69539;42.138;24.742;2023-05-10T06:52:14;5.80;;;3.67;;
80227;SDS011;69539;42.138;24.742;2023-05-10T06:54:39;5.25;;;3.40;;
80227;SDS011;69539;42.138;24.742;2023-05-10T06:57:05;6.03;;;3.50;;
80227;SDS011;69539;42.138;24.742;2023-05-10T06:59:31;4.93;;;3.65;;
80227;SDS011;69539;42.138;24.742;2023-05-10T07:01:57;5.20;;;3.40;;
80227;SDS011;69539;42.138;24.742;2023-05-10T07:04:22;4.60;;;3.20;;
80227;SDS011;69539;42.138;24.742;2023-05-10T07:06:48;5.45;;;3.30;;
80227;SDS011;69539;42.138;24.742;2023-05-10T07:09:14;4.95;;;3.30;;
80227;SDS011;69539;42.138;24.742;2023-05-10T07:11:40;5.00;;;3.25;;
80227;SDS011;69539;42.138;24.742;2023-05-10T07:14:06;4.88;;;3.25;;
80227;SDS011;69539;42.138;24.742;2023-05-10T07:16:32;3.58;;;3.05;;
80227;SDS011;69539;42.138;24.742;2023-05-10T07:18:57;5.53;;;3.70;;
80227;SDS011;69539;42.138;24.742;2023-05-10T07:21:23;6.40;;;3.30;;
80227;SDS011;69539;42.138;24.742;2023-05-10T07:23:49;5.35;;;3.10;;
80227;SDS011;69539;42.138;24.742;2023-05-10T07:26:15;8.95;;;3.75;;
80227;SDS011;69539;42.138;24.742;2023-05-10T07:28:41;9.60;;;3.55;;
80227;SDS011;69539;42.138;24.742;2023-05-10T07:31:07;4.72;;;3.38;;
80227;SDS011;69539;42.138;24.742;2023-05-10T07:33:32;4.28;;;3.10;;
80227;SDS011;69539;42.138;24.742;2023-05-10T07:35:58;5.82;;;3.20;;
80227;SDS011;69539;42.138;24.742;2023-05-10T07:38:24;4.90;;;3.45;;
80227;SDS011;69539;42.138;24.742;2023-05-10T07:40:49;4.35;;;3.20;;
80227;SDS011;69539;42.138;24.742;2023-05-10T07:43:15;5.57;;;3.10;;
80227;SDS011;69539;42.138;24.742;2023-05-10T07:45:41;5.85;;;3.03;;
80227;SDS011;69539;42.138;24.742;2023-05-10T07:48:06;4.93;;;3.00;;
80227;SDS011;69539;42.138;24.742;2023-05-10T07:50:32;6.10;;;3.28;;
80227;SDS011;69539;42.138;24.742;2023-05-10T07:52:58;5.03;;;3.20;;
80227;SDS011;69539;42.138;24.742;2023-05-10T07:55:24;8.35;;;3.40;;
80227;SDS011;69539;42.138;24.742;2023-05-10T07:57:49;11.73;;;3.50;;
80227;SDS011;69539;42.138;24.742;2023-05-10T08:00:18;6.35;;;3.22;;
80227;SDS011;69539;42.138;24.742;2023-05-10T08:02:45;12.98;;;3.30;;
80227;SDS011;69539;42.138;24.742;2023-05-10T08:05:11;8.82;;;3.80;;
80227;SDS011;69539;42.138;24.742;2023-05-10T08:07:37;9.38;;;3.42;;
80227;SDS011;69539;42.138;24.742;2023-05-10T08:10:03;7.93;;;3.30;;
80227;SDS011;69539;42.138;24.742;2023-05-10T08:12:29;10.68;;;3.50;;
80227;SDS011;69539;42.138;24.742;2023-05-10T08:14:55;8.23;;;3.50;;
80227;SDS011;69539;42.138;24.742;2023-05-10T08:17:21;12.50;;;3.53;;
80227;SDS011;69539;42.138;24.742;2023-05-10T08:19:46;13.00;;;3.50;;
80227;SDS011;69539;42.138;24.742;2023-05-10T08:22:12;9.52;;;3.20;;
80227;SDS011;69539;42.138;24.742;2023-05-10T08:24:38;13.63;;;3.55;;
80227;SDS011;69539;42.138;24.742;2023-05-10T08:27:07;8.98;;;3.63;;
80227;SDS011;69539;42.138;24.742;2023-05-10T08:29:33;10.80;;;3.50;;
80227;SDS011;69539;42.138;24.742;2023-05-10T08:31:59;10.60;;;3.58;;
80227;SDS011;69539;42.138;24.742;2023-05-10T08:34:25;7.22;;;3.42;;
80227;SDS011;69539;42.138;24.742;2023-05-10T08:36:52;11.95;;;3.95;;
80227;SDS011;69539;42.138;24.742;2023-05-10T08:39:17;10.10;;;3.80;;
80227;SDS011;69539;42.138;24.742;2023-05-10T08:41:44;6.88;;;3.10;;
80227;SDS011;69539;42.138;24.742;2023-05-10T08:46:37;6.18;;;3.03;;
80227;SDS011;69539;42.138;24.742;2023-05-10T08:49:09;9.85;;;3.25;;
80227;SDS011;69539;42.138;24.742;2023-05-10T08:51:44;7.70;;;3.47;;
80227;SDS011;69539;42.138;24.742;2023-05-10T08:54:15;7.10;;;3.30;;
80227;SDS011;69539;42.138;24.742;2023-05-10T08:56:41;5.47;;;3.38;;
80227;SDS011;69539;42.138;24.742;2023-05-10T08:59:07;11.10;;;3.60;;
80227;SDS011;69539;42.138;24.742;2023-05-10T09:01:33;8.00;;;3.10;;
80227;SDS011;69539;42.138;24.742;2023-05-10T09:04:01;5.78;;;2.92;;
80227;SDS011;69539;42.138;24.742;2023-05-10T09:06:27;6.60;;;3.20;;
80227;SDS011;69539;42.138;24.742;2023-05-10T09:08:54;9.07;;;3.13;;
80227;SDS011;69539;42.138;24.742;2023-05-10T09:11:21;6.57;;;2.97;;
80227;SDS011;69539;42.138;24.742;2023-05-10T09:13:48;6.28;;;3.05;;
80227;SDS011;69539;42.138;24.742;2023-05-10T09:16:15;8.10;;;3.03;;
80227;SDS011;69539;42.138;24.742;2023-05-10T09:18:41;6.03;;;3.00;;
80227;SDS011;69539;42.138;24.742;2023-05-10T09:21:06;7.30;;;3.35;;
80227;SDS011;69539;42.138;24.742;2023-05-10T09:23:33;6.20;;;3.00;;
80227;SDS011;69539;42.138;24.742;2023-05-10T09:26:05;5.28;;;3.10;;
80227;SDS011;69539;42.138;24.742;2023-05-10T09:28:31;7.03;;;2.90;;
80227;SDS011;69539;42.138;24.742;2023-05-10T09:31:15;8.98;;;3.17;;
80227;SDS011;69539;42.138;24.742;2023-05-10T09:33:44;6.72;;;3.25;;
80227;SDS011;69539;42.138;24.742;2023-05-10T09:36:14;6.97;;;3.33;;
80227;SDS011;69539;42.138;24.742;2023-05-10T09:38:50;6.20;;;3.08;;
80227;SDS011;69539;42.138;24.742;2023-05-10T09:41:18;4.53;;;3.05;;
80227;SDS011;69539;42.138;24.742;2023-05-10T09:43:45;4.38;;;3.22;;
80227;SDS011;69539;42.138;24.742;2023-05-10T09:46:10;6.63;;;3.50;;
80227;SDS011;69539;42.138;24.742;2023-05-10T09:48:46;5.22;;;3.10;;
80227;SDS011;69539;42.138;24.742;2023-05-10T09:51:22;8.02;;;3.20;;
80227;SDS011;69539;42.138;24.742;2023-05-10T09:54:08;5.55;;;3.25;;
80227;SDS011;69539;42.138;24.742;2023-05-10T09:56:36;5.65;;;3.20;;
80227;SDS011;69539;42.138;24.742;2023-05-10T09:59:04;5.78;;;3.30;;
80227;SDS011;69539;42.138;24.742;2023-05-10T10:01:30;4.47;;;3.10;;
80227;SDS011;69539;42.138;24.742;2023-05-10T10:03:56;4.20;;;3.22;;
80227;SDS011;69539;42.138;24.742;2023-05-10T10:06:23;5.05;;;3.20;;
80227;SDS011;69539;42.138;24.742;2023-05-10T10:08:50;3.78;;;3.10;;
80227;SDS011;69539;42.138;24.742;2023-05-10T10:11:16;8.02;;;3.50;;
80227;SDS011;69539;42.138;24.742;2023-05-10T10:13:42;4.72;;;3.25;;
80227;SDS011;69539;42.138;24.742;2023-05-10T10:16:08;4.05;;;3.20;;
80227;SDS011;69539;42.138;24.742;2023-05-10T10:18:35;4.70;;;3.40;;
80227;SDS011;69539;42.138;24.742;2023-05-10T10:21:07;5.18;;;3.80;;
80227;SDS011;69539;42.138;24.742;2023-05-10T10:23:36;6.63;;;3.55;;
80227;SDS011;69539;42.138;24.742;2023-05-10T10:26:03;4.55;;;3.22;;
80227;SDS011;69539;42.138;24.742;2023-05-10T10:28:39;5.90;;;3.17;;
80227;SDS011;69539;42.138;24.742;2023-05-10T10:31:17;5.15;;;3.47;;
80227;SDS011;69539;42.138;24.742;2023-05-10T10:34:03;4.93;;;3.55;;
80227;SDS011;69539;42.138;24.742;2023-05-10T10:36:31;6.75;;;3.80;;
80227;SDS011;69539;42.138;24.742;2023-05-10T10:38:59;6.97;;;3.70;;
80227;SDS011;69539;42.138;24.742;2023-05-10T10:41:30;5.47;;;2.97;;
80227;SDS011;69539;42.138;24.742;2023-05-10T10:49:44;6.65;;;3.33;;
80227;SDS011;69539;42.138;24.742;2023-05-10T10:52:26;4.72;;;3.38;;
80227;SDS011;69539;42.138;24.742;2023-05-10T10:57:55;4.57;;;3.10;;
80227;SDS011;69539;42.138;24.742;2023-05-10T11:00:35;4.18;;;3.40;;
80227;SDS011;69539;42.138;24.742;2023-05-10T11:03:03;5.22;;;3.40;;
80227;SDS011;69539;42.138;24.742;2023-05-10T11:05:46;6.28;;;3.63;;
80227;SDS011;69539;42.138;24.742;2023-05-10T11:08:18;3.90;;;3.45;;
80227;SDS011;69539;42.138;24.742;2023-05-10T11:13:44;5.37;;;3.70;;
80227;SDS011;69539;42.138;24.742;2023-05-10T11:16:13;5.57;;;3.30;;
80227;SDS011;69539;42.138;24.742;2023-05-10T11:18:39;5.85;;;3.88;;
80227;SDS011;69539;42.138;24.742;2023-05-10T11:21:07;5.72;;;3.63;;
80227;SDS011;69539;42.138;24.742;2023-05-10T11:26:08;7.35;;;3.85;;
80227;SDS011;69539;42.138;24.742;2023-05-10T11:28:34;6.05;;;3.40;;
80227;SDS011;69539;42.138;24.742;2023-05-10T11:31:06;3.90;;;3.50;;
80227;SDS011;69539;42.138;24.742;2023-05-10T11:33:41;8.30;;;4.00;;
80227;SDS011;69539;42.138;24.742;2023-05-10T11:36:12;8.65;;;3.72;;
80227;SDS011;69539;42.138;24.742;2023-05-10T11:38:39;4.93;;;3.60;;
80227;SDS011;69539;42.138;24.742;2023-05-10T11:41:04;7.25;;;3.88;;
80227;SDS011;69539;42.138;24.742;2023-05-10T11:43:30;7.15;;;4.10;;
80227;SDS011;69539;42.138;24.742;2023-05-10T11:45:57;6.43;;;3.63;;
80227;SDS011;69539;42.138;24.742;2023-05-10T11:48:22;7.60;;;3.78;;
80227;SDS011;69539;42.138;24.742;2023-05-10T11:50:49;6.40;;;3.58;;
80227;SDS011;69539;42.138;24.742;2023-05-10T11:53:15;7.40;;;3.80;;
80227;SDS011;69539;42.138;24.742;2023-05-10T11:55:40;5.30;;;3.80;;
80227;SDS011;69539;42.138;24.742;2023-05-10T11:58:06;4.75;;;3.50;;
80227;SDS011;69539;42.138;24.742;2023-05-10T12:00:32;4.55;;;3.60;;
80227;SDS011;69539;42.138;24.742;2023-05-10T12:02:58;7.68;;;3.80;;
80227;SDS011;69539;42.138;24.742;2023-05-10T12:05:25;6.15;;;3.75;;
80227;SDS011;69539;42.138;24.742;2023-05-10T12:07:51;5.53;;;3.90;;
80227;SDS011;69539;42.138;24.742;2023-05-10T12:10:17;5.25;;;3.80;;
80227;SDS011;69539;42.138;24.742;2023-05-10T12:12:51;5.70;;;4.15;;
80227;SDS011;69539;42.138;24.742;2023-05-10T12:15:18;7.60;;;4.03;;
80227;SDS011;69539;42.138;24.742;2023-05-10T12:17:48;5.72;;;4.20;;
80227;SDS011;69539;42.138;24.742;2023-05-10T12:20:15;6.63;;;3.90;;
80227;SDS011;69539;42.138;24.742;2023-05-10T12:22:49;4.43;;;3.53;;
80227;SDS011;69539;42.138;24.742;2023-05-10T12:25:17;5.65;;;3.70;;
80227;SDS011;69539;42.138;24.742;2023-05-10T12:27:50;8.02;;;4.25;;
80227;SDS011;69539;42.138;24.742;2023-05-10T12:30:27;6.25;;;3.72;;
80227;SDS011;69539;42.138;24.742;2023-05-10T12:32:58;5.10;;;3.67;;
80227;SDS011;69539;42.138;24.742;2023-05-10T12:35:32;7.05;;;4.00;;
80227;SDS011;69539;42.138;24.742;2023-05-10T12:37:58;4.65;;;3.90;;
80227;SDS011;69539;42.138;24.742;2023-05-10T12:40:24;8.65;;;3.63;;
80227;SDS011;69539;42.138;24.742;2023-05-10T12:42:50;8.70;;;3.78;;
80227;SDS011;69539;42.138;24.742;2023-05-10T12:45:17;5.40;;;3.38;;
80227;SDS011;69539;42.138;24.742;2023-05-10T12:47:43;5.53;;;3.80;;
80227;SDS011;69539;42.138;24.742;2023-05-10T12:50:09;6.00;;;3.90;;
80227;SDS011;69539;42.138;24.742;2023-05-10T12:52:35;4.70;;;3.55;;
80227;SDS011;69539;42.138;24.742;2023-05-10T12:55:01;4.50;;;3.80;;
80227;SDS011;69539;42.138;24.742;2023-05-10T12:57:28;6.40;;;3.95;;
80227;SDS011;69539;42.138;24.742;2023-05-10T12:59:53;4.82;;;3.80;;
80227;SDS011;69539;42.138;24.742;2023-05-10T13:02:19;6.72;;;4.63;;
80227;SDS011;69539;42.138;24.742;2023-05-10T13:04:46;6.35;;;4.13;;
80227;SDS011;69539;42.138;24.742;2023-05-10T13:07:12;4.82;;;4.18;;
80227;SDS011;69539;42.138;24.742;2023-05-10T13:09:38;6.97;;;4.07;;
80227;SDS011;69539;42.138;24.742;2023-05-10T13:12:04;5.05;;;3.92;;
80227;SDS011;69539;42.138;24.742;2023-05-10T13:14:30;6.13;;;4.07;;
80227;SDS011;69539;42.138;24.742;2023-05-10T13:16:56;4.35;;;3.85;;
80227;SDS011;69539;42.138;24.742;2023-05-10T13:19:22;7.05;;;4.65;;
80227;SDS011;69539;42.138;24.742;2023-05-10T13:21:47;6.68;;;4.60;;
80227;SDS011;69539;42.138;24.742;2023-05-10T13:24:13;5.20;;;4.10;;
80227;SDS011;69539;42.138;24.742;2023-05-10T13:26:39;5.65;;;4.47;;
80227;SDS011;69539;42.138;24.742;2023-05-10T13:29:05;5.85;;;4.07;;
80227;SDS011;69539;42.138;24.742;2023-05-10T13:31:31;8.45;;;4.05;;
80227;SDS011;69539;42.138;24.742;2023-05-10T13:33:58;5.30;;;3.67;;
80227;SDS011;69539;42.138;24.742;2023-05-10T13:36:24;4.75;;;4.22;;
80227;SDS011;69539;42.138;24.742;2023-05-10T13:38:50;5.78;;;4.28;;
80227;SDS011;69539;42.138;24.742;2023-05-10T13:41:15;4.85;;;4.13;;
80227;SDS011;69539;42.138;24.742;2023-05-10T13:43:41;5.10;;;4.43;;
80227;SDS011;69539;42.138;24.742;2023-05-10T13:46:07;5.80;;;4.72;;
80227;SDS011;69539;42.138;24.742;2023-05-10T13:48:32;5.32;;;4.40;;
80227;SDS011;69539;42.138;24.742;2023-05-10T13:50:58;5.50;;;4.53;;
80227;SDS011;69539;42.138;24.742;2023-05-10T13:53:24;5.05;;;4.47;;
80227;SDS011;69539;42.138;24.742;2023-05-10T13:59:02;5.65;;;4.47;;
80227;SDS011;69539;42.138;24.742;2023-05-10T14:01:28;6.03;;;4.82;;
80227;SDS011;69539;42.138;24.742;2023-05-10T14:03:53;5.85;;;4.82;;
80227;SDS011;69539;42.138;24.742;2023-05-10T14:06:19;6.95;;;4.50;;
80227;SDS011;69539;42.138;24.742;2023-05-10T14:08:45;5.72;;;5.03;;
80227;SDS011;69539;42.138;24.742;2023-05-10T14:11:11;7.45;;;5.15;;
80227;SDS011;69539;42.138;24.742;2023-05-10T14:13:36;8.32;;;5.55;;
80227;SDS011;69539;42.138;24.742;2023-05-10T14:16:02;8.60;;;5.30;;
80227;SDS011;69539;42.138;24.742;2023-05-10T14:18:28;5.90;;;4.75;;
80227;SDS011;69539;42.138;24.742;2023-05-10T14:20:54;6.65;;;4.57;;
80227;SDS011;69539;42.138;24.742;2023-05-10T14:23:21;5.88;;;4.65;;
80227;SDS011;69539;42.138;24.742;2023-05-10T14:25:49;9.05;;;4.68;;
80227;SDS011;69539;42.138;24.742;2023-05-10T14:28:16;5.68;;;4.70;;
80227;SDS011;69539;42.138;24.742;2023-05-10T14:30:42;5.28;;;4.55;;
80227;SDS011;69539;42.138;24.742;2023-05-10T14:33:08;5.18;;;4.45;;
80227;SDS011;69539;42.138;24.742;2023-05-10T14:35:34;7.57;;;5.25;;
80227;SDS011;69539;42.138;24.742;2023-05-10T14:38:01;6.75;;;5.10;;
80227;SDS011;69539;42.138;24.742;2023-05-10T14:40:28;5.72;;;5.13;;
80227;SDS011;69539;42.138;24.742;2023-05-10T14:42:54;6.53;;;5.05;;
80227;SDS011;69539;42.138;24.742;2023-05-10T14:45:20;5.95;;;5.13;;
80227;SDS011;69539;42.138;24.742;2023-05-10T14:47:46;5.80;;;4.93;;
